createdAt,value
2016-04-12T00:00:09.438Z,87.08
2016-04-12T00:00:19.454Z,86.94
2016-04-12T00:00:29.454Z,86.99
2016-04-12T00:00:39.456Z,86.9
2016-04-12T00:00:49.456Z,86.76
2016-04-12T00:00:59.487Z,86.99
2016-04-12T00:01:09.472Z,86.85
2016-04-12T00:01:19.472Z,86.85
2016-04-12T00:01:29.550Z,86.85
2016-04-12T00:01:39.709Z,86.8
2016-04-12T00:01:49.490Z,86.85
2016-04-12T00:01:59.490Z,86.76
2016-04-12T00:02:09.490Z,86.66
2016-04-12T00:02:19.506Z,86.7
2016-04-12T00:02:29.506Z,86.7
2016-04-12T00:02:39.509Z,86.66
2016-04-12T00:02:49.525Z,86.7
2016-04-12T00:02:59.525Z,87.13
2016-04-12T00:03:09.525Z,86.8
2016-04-12T00:03:19.540Z,86.8
2016-04-12T00:03:29.540Z,86.85
2016-04-12T00:03:39.542Z,87.04
2016-04-12T00:03:49.542Z,86.66
2016-04-12T00:03:59.558Z,86.85
2016-04-12T00:04:09.558Z,87.18
2016-04-12T00:04:19.558Z,87.23
2016-04-12T00:04:29.558Z,87.27
2016-04-12T00:04:39.576Z,86.76
2016-04-12T00:04:49.576Z,87.13
2016-04-12T00:04:59.576Z,87.23
2016-04-12T00:05:09.592Z,87.13
2016-04-12T00:05:19.592Z,87.13
2016-04-12T00:05:29.592Z,87.13
2016-04-12T00:05:39.625Z,87.13
2016-04-12T00:05:49.610Z,87.23
2016-04-12T00:05:59.625Z,87.13
2016-04-12T00:06:09.625Z,86.94
2016-04-12T00:06:19.625Z,86.76
2016-04-12T00:06:29.625Z,86.85
2016-04-12T00:06:39.644Z,87.04
2016-04-12T00:06:49.644Z,86.76
2016-04-12T00:06:59.644Z,87.13
2016-04-12T00:07:09.644Z,87.27
2016-04-12T00:07:19.660Z,87.23
2016-04-12T00:07:29.660Z,87.23
2016-04-12T00:07:39.663Z,87.04
2016-04-12T00:07:49.663Z,87.04
2016-04-12T00:07:59.694Z,86.85
2016-04-12T00:08:09.527Z,86.85
2016-04-12T00:08:19.699Z,86.94
2016-04-12T00:08:29.699Z,86.76
2016-04-12T00:08:39.833Z,87.13
2016-04-12T00:08:48.942Z,86.94
2016-04-12T00:08:59.708Z,86.85
2016-04-12T00:09:09.708Z,87.04
2016-04-12T00:09:19.708Z,87.42
2016-04-12T00:09:29.723Z,87.04
2016-04-12T00:09:39.726Z,87.23
2016-04-12T00:09:49.726Z,87.61
2016-04-12T00:09:59.742Z,87.13
2016-04-12T00:10:09.742Z,87.61
2016-04-12T00:10:19.742Z,87.61
2016-04-12T00:10:29.742Z,87.61
2016-04-12T00:10:39.745Z,87.71
2016-04-12T00:10:49.760Z,87.61
2016-04-12T00:10:59.760Z,87.61
2016-04-12T00:11:09.776Z,87.32
2016-04-12T00:11:19.776Z,87.52
2016-04-12T00:11:29.776Z,87.42
2016-04-12T00:11:39.778Z,87.32
2016-04-12T00:11:49.794Z,87.42
2016-04-12T00:11:59.794Z,87.52
2016-04-12T00:12:09.794Z,87.42
2016-04-12T00:12:19.794Z,87.71
2016-04-12T00:12:29.809Z,87.8
2016-04-12T00:12:39.812Z,87.8
2016-04-12T00:12:49.812Z,87.61
2016-04-12T00:12:59.828Z,87.42
2016-04-12T00:13:09.828Z,87.32
2016-04-12T00:13:19.828Z,87.42
2016-04-12T00:13:29.844Z,87.52
2016-04-12T00:13:39.847Z,87.32
2016-04-12T00:13:49.847Z,87.32
2016-04-12T00:13:59.862Z,87.42
2016-04-12T00:14:09.862Z,87.42
2016-04-12T00:14:19.862Z,87.52
2016-04-12T00:14:29.862Z,87.61
2016-04-12T00:14:39.880Z,87.61
2016-04-12T00:14:49.880Z,87.52
2016-04-12T00:14:59.880Z,87.42
2016-04-12T00:15:09.880Z,87.42
2016-04-12T00:15:19.895Z,87.23
2016-04-12T00:15:29.895Z,87.13
2016-04-12T00:15:39.898Z,87.32
2016-04-12T00:15:49.914Z,87.23
2016-04-12T00:15:59.914Z,87.42
2016-04-12T00:16:09.914Z,87.42
2016-04-12T00:16:19.914Z,87.52
2016-04-12T00:16:30.057Z,87.32
2016-04-12T00:16:39.947Z,87.52
2016-04-12T00:16:49.932Z,87.52
2016-04-12T00:16:59.947Z,87.52
2016-04-12T00:17:09.947Z,87.8
2016-04-12T00:17:19.947Z,87.99
2016-04-12T00:17:29.947Z,87.8
2016-04-12T00:17:39.966Z,87.8
2016-04-12T00:17:49.966Z,87.99
2016-04-12T00:17:59.966Z,87.8
2016-04-12T00:18:09.966Z,87.9
2016-04-12T00:18:19.982Z,87.99
2016-04-12T00:18:29.985Z,87.99
2016-04-12T00:18:39.985Z,87.99
2016-04-12T00:18:50.000Z,87.9
2016-04-12T00:19:00.000Z,87.8
2016-04-12T00:19:10.000Z,87.71
2016-04-12T00:19:20.016Z,87.99
2016-04-12T00:19:30.018Z,87.99
2016-04-12T00:19:40.018Z,87.9
2016-04-12T00:19:50.033Z,87.99
2016-04-12T00:19:59.893Z,87.71
2016-04-12T00:20:10.033Z,87.99
2016-04-12T00:20:20.033Z,87.99
2016-04-12T00:20:30.052Z,87.99
2016-04-12T00:20:40.052Z,87.71
2016-04-12T00:20:50.052Z,88.09
2016-04-12T00:21:00.068Z,87.71
2016-04-12T00:21:10.068Z,87.71
2016-04-12T00:21:20.068Z,87.8
2016-04-12T00:21:30.070Z,87.8
2016-04-12T00:21:40.085Z,87.71
2016-04-12T00:21:50.085Z,87.71
2016-04-12T00:22:00.085Z,87.99
2016-04-12T00:22:10.101Z,87.9
2016-04-12T00:22:20.101Z,87.9
2016-04-12T00:22:30.105Z,87.99
2016-04-12T00:22:40.105Z,87.8
2016-04-12T00:22:50.121Z,87.9
2016-04-12T00:23:00.121Z,87.9
2016-04-12T00:23:10.121Z,87.9
2016-04-12T00:23:20.121Z,88.09
2016-04-12T00:23:30.138Z,87.9
2016-04-12T00:23:40.138Z,87.9
2016-04-12T00:23:49.982Z,87.8
2016-04-12T00:23:59.388Z,87.8
2016-04-12T00:24:10.169Z,88.18
2016-04-12T00:24:20.169Z,87.99
2016-04-12T00:24:30.172Z,87.9
2016-04-12T00:24:40.172Z,87.9
2016-04-12T00:24:50.172Z,87.99
2016-04-12T00:25:00.188Z,87.8
2016-04-12T00:25:10.188Z,87.8
2016-04-12T00:25:20.188Z,87.9
2016-04-12T00:25:30.190Z,87.9
2016-04-12T00:25:40.206Z,88.18
2016-04-12T00:25:50.206Z,88.18
2016-04-12T00:26:00.206Z,88.18
2016-04-12T00:26:10.221Z,88.18
2016-04-12T00:26:20.221Z,88.18
2016-04-12T00:26:30.647Z,88.18
2016-04-12T00:26:40.225Z,88.18
2016-04-12T00:26:50.241Z,88.18
2016-04-12T00:27:00.241Z,88.28
2016-04-12T00:27:10.257Z,88.18
2016-04-12T00:27:20.241Z,88.18
2016-04-12T00:27:30.257Z,88.28
2016-04-12T00:27:40.258Z,88.18
2016-04-12T00:27:50.258Z,88.28
2016-04-12T00:28:00.273Z,88.18
2016-04-12T00:28:10.273Z,88.37
2016-04-12T00:28:20.273Z,88.18
2016-04-12T00:28:30.289Z,88.28
2016-04-12T00:28:40.293Z,88.18
2016-04-12T00:28:50.293Z,88.37
2016-04-12T00:29:00.308Z,88.18
2016-04-12T00:29:10.308Z,88.28
2016-04-12T00:29:20.308Z,87.9
2016-04-12T00:29:30.308Z,88.28
2016-04-12T00:29:40.311Z,88.09
2016-04-12T00:29:50.327Z,88.09
2016-04-12T00:30:00.327Z,88.37
2016-04-12T00:30:10.343Z,88.09
2016-04-12T00:30:20.388Z,88.09
2016-04-12T00:30:30.200Z,88.09
2016-04-12T00:30:40.343Z,88.09
2016-04-12T00:30:50.358Z,88.09
2016-04-12T00:31:00.358Z,88.18
2016-04-12T00:31:10.358Z,88.18
2016-04-12T00:31:20.374Z,88.37
2016-04-12T00:31:30.374Z,88.18
2016-04-12T00:31:40.307Z,88.37
2016-04-12T00:31:50.229Z,88.28
2016-04-12T00:32:00.400Z,88.18
2016-04-12T00:32:10.275Z,87.99
2016-04-12T00:32:20.390Z,88.18
2016-04-12T00:32:30.405Z,88.28
2016-04-12T00:32:40.407Z,88.28
2016-04-12T00:32:50.407Z,88.28
2016-04-12T00:33:00.423Z,88.37
2016-04-12T00:33:10.423Z,88.37
2016-04-12T00:33:20.423Z,88.75
2016-04-12T00:33:30.439Z,88.56
2016-04-12T00:33:40.442Z,88.66
2016-04-12T00:33:50.442Z,88.37
2016-04-12T00:34:00.442Z,88.94
2016-04-12T00:34:10.457Z,88.46
2016-04-12T00:34:20.457Z,88.66
2016-04-12T00:34:30.457Z,88.66
2016-04-12T00:34:40.459Z,88.75
2016-04-12T00:34:50.475Z,88.75
2016-04-12T00:35:00.475Z,88.75
2016-04-12T00:35:10.475Z,88.75
2016-04-12T00:35:20.506Z,88.75
2016-04-12T00:35:30.490Z,88.85
2016-04-12T00:35:40.493Z,88.94
2016-04-12T00:35:50.509Z,88.75
2016-04-12T00:36:00.525Z,88.66
2016-04-12T00:36:10.525Z,88.66
2016-04-12T00:36:20.525Z,88.56
2016-04-12T00:36:30.509Z,88.66
2016-04-12T00:36:40.528Z,88.75
2016-04-12T00:36:50.371Z,88.56
2016-04-12T00:36:59.778Z,88.56
2016-04-12T00:37:10.543Z,88.75
2016-04-12T00:37:20.543Z,88.75
2016-04-12T00:37:30.559Z,88.66
2016-04-12T00:37:40.562Z,88.46
2016-04-12T00:37:50.562Z,88.46
2016-04-12T00:38:00.562Z,88.56
2016-04-12T00:38:10.578Z,88.46
2016-04-12T00:38:20.578Z,88.46
2016-04-12T00:38:30.593Z,88.46
2016-04-12T00:38:40.596Z,88.46
2016-04-12T00:38:50.596Z,88.66
2016-04-12T00:39:00.596Z,88.66
2016-04-12T00:39:09.846Z,88.46
2016-04-12T00:39:20.612Z,88.75
2016-04-12T00:39:30.612Z,88.85
2016-04-12T00:39:40.629Z,88.56
2016-04-12T00:39:50.629Z,88.28
2016-04-12T00:40:00.629Z,88.75
2016-04-12T00:40:10.629Z,88.56
2016-04-12T00:40:20.629Z,88.66
2016-04-12T00:40:30.645Z,88.66
2016-04-12T00:40:40.648Z,88.37
2016-04-12T00:40:50.648Z,88.75
2016-04-12T00:41:00.664Z,88.75
2016-04-12T00:41:10.664Z,88.66
2016-04-12T00:41:20.664Z,88.94
2016-04-12T00:41:30.664Z,88.85
2016-04-12T00:41:40.681Z,88.75
2016-04-12T00:41:50.681Z,88.75
2016-04-12T00:42:00.697Z,88.94
2016-04-12T00:42:10.681Z,88.94
2016-04-12T00:42:20.697Z,88.94
2016-04-12T00:42:30.697Z,89.14
2016-04-12T00:42:40.701Z,88.75
2016-04-12T00:42:50.717Z,88.85
2016-04-12T00:43:00.717Z,88.94
2016-04-12T00:43:10.717Z,88.94
2016-04-12T00:43:20.732Z,89.04
2016-04-12T00:43:30.732Z,89.04
2016-04-12T00:43:40.734Z,88.94
2016-04-12T00:43:50.734Z,88.94
2016-04-12T00:44:00.750Z,89.04
2016-04-12T00:44:10.750Z,89.23
2016-04-12T00:44:20.750Z,88.85
2016-04-12T00:44:30.000Z,89.14
2016-04-12T00:44:40.767Z,89.32
2016-04-12T00:44:50.767Z,88.94
2016-04-12T00:45:00.767Z,89.04
2016-04-12T00:45:10.799Z,88.85
2016-04-12T00:45:20.783Z,88.85
2016-04-12T00:45:30.783Z,88.85
2016-04-12T00:45:40.803Z,89.32
2016-04-12T00:45:50.803Z,89.23
2016-04-12T00:46:00.803Z,89.32
2016-04-12T00:46:10.803Z,89.61
2016-04-12T00:46:20.818Z,89.42
2016-04-12T00:46:30.834Z,89.51
2016-04-12T00:46:40.836Z,89.42
2016-04-12T00:46:50.836Z,89.42
2016-04-12T00:47:00.836Z,89.32
2016-04-12T00:47:10.836Z,89.61
2016-04-12T00:47:20.852Z,89.61
2016-04-12T00:47:30.852Z,89.7
2016-04-12T00:47:40.855Z,89.61
2016-04-12T00:47:50.855Z,89.8
2016-04-12T00:48:00.870Z,89.61
2016-04-12T00:48:10.870Z,89.7
2016-04-12T00:48:20.870Z,89.7
2016-04-12T00:48:30.870Z,89.7
2016-04-12T00:48:40.888Z,89.23
2016-04-12T00:48:50.888Z,89.32
2016-04-12T00:49:00.888Z,89.32
2016-04-12T00:49:10.903Z,89.51
2016-04-12T00:49:20.903Z,89.61
2016-04-12T00:49:30.903Z,89.61
2016-04-12T00:49:40.923Z,89.42
2016-04-12T00:49:50.923Z,89.14
2016-04-12T00:50:00.923Z,89.51
2016-04-12T00:50:10.939Z,89.42
2016-04-12T00:50:20.939Z,89.04
2016-04-12T00:50:30.939Z,89.14
2016-04-12T00:50:40.941Z,89.42
2016-04-12T00:50:50.941Z,89.51
2016-04-12T00:51:00.956Z,89.23
2016-04-12T00:51:10.956Z,89.51
2016-04-12T00:51:20.956Z,89.04
2016-04-12T00:51:30.972Z,89.23
2016-04-12T00:51:40.975Z,89.42
2016-04-12T00:51:50.975Z,89.04
2016-04-12T00:52:00.975Z,89.42
2016-04-12T00:52:10.991Z,89.14
2016-04-12T00:52:20.991Z,89.14
2016-04-12T00:52:30.991Z,89.23
2016-04-12T00:52:40.993Z,89.23
2016-04-12T00:52:51.008Z,89.42
2016-04-12T00:53:01.008Z,89.32
2016-04-12T00:53:11.008Z,89.32
2016-04-12T00:53:21.024Z,89.14
2016-04-12T00:53:31.024Z,89.32
2016-04-12T00:53:41.027Z,89.23
2016-04-12T00:53:51.042Z,89.7
2016-04-12T00:54:01.042Z,89.8
2016-04-12T00:54:11.042Z,89.42
2016-04-12T00:54:21.058Z,89.61
2016-04-12T00:54:31.058Z,89.61
2016-04-12T00:54:41.061Z,89.61
2016-04-12T00:54:51.061Z,89.61
2016-04-12T00:55:01.077Z,89.99
2016-04-12T00:55:11.092Z,89.7
2016-04-12T00:55:21.077Z,89.61
2016-04-12T00:55:31.077Z,89.8
2016-04-12T00:55:41.095Z,89.7
2016-04-12T00:55:51.095Z,89.8
2016-04-12T00:56:15.283Z,89.8
2016-04-12T00:56:20.033Z,89.7
2016-04-12T00:56:30.002Z,89.8
2016-04-12T00:56:40.004Z,89.61
2016-04-12T00:56:50.004Z,89.51
2016-04-12T00:57:00.019Z,89.61
2016-04-12T00:57:10.019Z,89.61
2016-04-12T00:57:20.050Z,89.51
2016-04-12T00:57:30.019Z,89.7
2016-04-12T00:57:40.037Z,90.18
2016-04-12T00:57:50.037Z,89.85
2016-04-12T00:58:00.037Z,89.75
2016-04-12T00:58:10.052Z,89.42
2016-04-12T00:58:20.052Z,89.99
2016-04-12T00:58:30.068Z,89.85
2016-04-12T00:58:40.072Z,90.08
2016-04-12T00:58:50.072Z,89.99
2016-04-12T00:59:00.072Z,89.99
2016-04-12T00:59:10.072Z,89.8
2016-04-12T00:59:20.088Z,89.99
2016-04-12T00:59:30.088Z,89.8
2016-04-12T00:59:40.090Z,89.8
2016-04-12T00:59:50.105Z,89.8
2016-04-12T01:00:00.105Z,89.8
2016-04-12T01:00:10.105Z,89.8
2016-04-12T01:00:20.105Z,89.99
2016-04-12T01:00:30.121Z,90.08
2016-04-12T01:00:40.123Z,89.94
2016-04-12T01:00:50.123Z,90.28
2016-04-12T01:01:00.123Z,90.14
2016-04-12T01:01:10.139Z,89.89
2016-04-12T01:01:20.357Z,90.18
2016-04-12T01:01:30.139Z,89.89
2016-04-12T01:01:40.158Z,90.18
2016-04-12T01:01:50.158Z,90.28
2016-04-12T01:02:00.143Z,89.99
2016-04-12T01:02:10.158Z,90.18
2016-04-12T01:02:20.174Z,89.8
2016-04-12T01:02:30.174Z,89.89
2016-04-12T01:02:40.176Z,89.99
2016-04-12T01:02:50.191Z,90.18
2016-04-12T01:03:00.191Z,89.8
2016-04-12T01:03:10.191Z,89.99
2016-04-12T01:03:20.207Z,89.75
2016-04-12T01:03:30.207Z,89.85
2016-04-12T01:03:40.210Z,89.7
2016-04-12T01:03:50.226Z,89.56
2016-04-12T01:04:00.226Z,89.99
2016-04-12T01:04:10.226Z,89.94
2016-04-12T01:04:20.241Z,90.04
2016-04-12T01:04:30.226Z,89.8
2016-04-12T01:04:40.243Z,89.75
2016-04-12T01:04:50.243Z,89.8
2016-04-12T01:05:00.259Z,89.75
2016-04-12T01:05:10.259Z,90.52
2016-04-12T01:05:20.259Z,89.66
2016-04-12T01:05:30.275Z,90.33
2016-04-12T01:05:40.278Z,90.14
2016-04-12T01:05:50.278Z,90.23
2016-04-12T01:06:00.278Z,90.14
2016-04-12T01:06:10.278Z,90.33
2016-04-12T01:06:20.293Z,90.37
2016-04-12T01:06:30.293Z,90.33
2016-04-12T01:06:40.296Z,90.33
2016-04-12T01:06:50.312Z,90.04
2016-04-12T01:07:00.296Z,90.18
2016-04-12T01:07:10.312Z,90.14
2016-04-12T01:07:20.327Z,90.47
2016-04-12T01:07:30.327Z,90.37
2016-04-12T01:07:40.330Z,90.23
2016-04-12T01:07:50.330Z,90.23
2016-04-12T01:08:00.346Z,90.28
2016-04-12T01:08:10.346Z,90.23
2016-04-12T01:08:20.346Z,90.23
2016-04-12T01:08:30.346Z,90.04
2016-04-12T01:08:40.348Z,90.23
2016-04-12T01:08:50.364Z,90.14
2016-04-12T01:09:00.364Z,90.23
2016-04-12T01:09:10.379Z,90.33
2016-04-12T01:09:20.379Z,90.33
2016-04-12T01:09:30.379Z,90.23
2016-04-12T01:09:40.398Z,90.52
2016-04-12T01:09:50.398Z,90.33
2016-04-12T01:10:00.398Z,90.04
2016-04-12T01:10:10.398Z,90.08
2016-04-12T01:10:20.414Z,90.23
2016-04-12T01:10:30.414Z,90.23
2016-04-12T01:10:40.417Z,90.08
2016-04-12T01:10:50.417Z,90.04
2016-04-12T01:11:00.432Z,90.08
2016-04-12T01:11:10.432Z,90.33
2016-04-12T01:11:20.432Z,90.14
2016-04-12T01:11:30.448Z,90.52
2016-04-12T01:11:40.451Z,90.7
2016-04-12T01:11:50.451Z,90.47
2016-04-12T01:12:00.466Z,90.75
2016-04-12T01:12:10.466Z,90.18
2016-04-12T01:12:20.466Z,90.42
2016-04-12T01:12:30.482Z,90.47
2016-04-12T01:12:40.484Z,90.37
2016-04-12T01:12:50.484Z,90.75
2016-04-12T01:13:00.484Z,90.18
2016-04-12T01:13:10.484Z,90.04
2016-04-12T01:13:20.500Z,90.18
2016-04-12T01:13:30.500Z,90.56
2016-04-12T01:13:40.502Z,90.37
2016-04-12T01:13:50.517Z,90.28
2016-04-12T01:14:00.517Z,90.28
2016-04-12T01:14:10.517Z,90.28
2016-04-12T01:14:20.533Z,90.28
2016-04-12T01:14:30.533Z,90.18
2016-04-12T01:14:40.536Z,90.47
2016-04-12T01:14:50.536Z,90.47
2016-04-12T01:15:00.552Z,90.28
2016-04-12T01:15:10.552Z,90.28
2016-04-12T01:15:20.552Z,90.37
2016-04-12T01:15:30.567Z,90.28
2016-04-12T01:15:40.570Z,90.28
2016-04-12T01:15:50.586Z,90.28
2016-04-12T01:16:00.586Z,90.28
2016-04-12T01:16:10.586Z,90.28
2016-04-12T01:16:20.586Z,90.28
2016-04-12T01:16:30.601Z,90.28
2016-04-12T01:16:40.589Z,90.28
2016-04-12T01:16:50.776Z,90.08
2016-04-12T01:17:00.495Z,90.47
2016-04-12T01:17:10.604Z,90.47
2016-04-12T01:17:20.620Z,90.28
2016-04-12T01:17:30.620Z,90.18
2016-04-12T01:17:40.638Z,90.28
2016-04-12T01:17:50.622Z,90.18
2016-04-12T01:18:00.638Z,90.08
2016-04-12T01:18:10.638Z,90.28
2016-04-12T01:18:20.638Z,90.18
2016-04-12T01:18:30.653Z,90.37
2016-04-12T01:18:40.656Z,90.18
2016-04-12T01:18:50.656Z,90.08
2016-04-12T01:19:00.672Z,90.18
2016-04-12T01:19:10.672Z,90.37
2016-04-12T01:19:20.672Z,90.47
2016-04-12T01:19:30.672Z,90.18
2016-04-12T01:19:40.675Z,90.37
2016-04-12T01:19:50.706Z,90.18
2016-04-12T01:20:00.691Z,90.14
2016-04-12T01:20:10.706Z,90.47
2016-04-12T01:20:20.706Z,90.42
2016-04-12T01:20:30.706Z,90.08
2016-04-12T01:20:40.708Z,90.47
2016-04-12T01:20:50.724Z,90.47
2016-04-12T01:21:00.708Z,90.18
2016-04-12T01:21:10.724Z,90.28
2016-04-12T01:21:20.739Z,90.37
2016-04-12T01:21:30.724Z,90.28
2016-04-12T01:21:40.742Z,90.37
2016-04-12T01:21:50.742Z,90.47
2016-04-12T01:22:00.758Z,90.23
2016-04-12T01:22:10.758Z,90.23
2016-04-12T01:22:20.758Z,90.37
2016-04-12T01:22:30.774Z,90.23
2016-04-12T01:22:40.777Z,90.23
2016-04-12T01:22:50.777Z,90.23
2016-04-12T01:23:00.777Z,90.28
2016-04-12T01:23:10.777Z,90.47
2016-04-12T01:23:20.792Z,90.08
2016-04-12T01:23:30.792Z,90.42
2016-04-12T01:23:40.811Z,90.04
2016-04-12T01:23:50.811Z,90.23
2016-04-12T01:24:00.811Z,90.23
2016-04-12T01:24:10.811Z,90.61
2016-04-12T01:24:20.811Z,90.37
2016-04-12T01:24:30.827Z,90.04
2016-04-12T01:24:40.829Z,90.61
2016-04-12T01:24:50.844Z,90.7
2016-04-12T01:25:00.079Z,90.56
2016-04-12T01:25:10.844Z,90.23
2016-04-12T01:25:20.844Z,90.47
2016-04-12T01:25:30.860Z,90.52
2016-04-12T01:25:40.863Z,90.42
2016-04-12T01:25:50.863Z,90.75
2016-04-12T01:26:00.863Z,90.7
2016-04-12T01:26:10.863Z,90.47
2016-04-12T01:26:20.878Z,90.42
2016-04-12T01:26:30.878Z,90.47
2016-04-12T01:26:40.881Z,90.61
2016-04-12T01:26:50.897Z,90.61
2016-04-12T01:27:00.913Z,90.61
2016-04-12T01:27:10.897Z,90.7
2016-04-12T01:27:20.913Z,90.7
2016-04-12T01:27:30.913Z,90.42
2016-04-12T01:27:40.915Z,90.52
2016-04-12T01:27:50.915Z,90.7
2016-04-12T01:28:00.930Z,90.42
2016-04-12T01:28:10.930Z,90.7
2016-04-12T01:28:20.930Z,90.14
2016-04-12T01:28:30.946Z,90.23
2016-04-12T01:28:40.965Z,90.89
2016-04-12T01:28:50.949Z,90.52
2016-04-12T01:29:00.965Z,90.14
2016-04-12T01:29:10.965Z,90.61
2016-04-12T01:29:20.965Z,90.14
2016-04-12T01:29:30.965Z,90.7
2016-04-12T01:29:40.999Z,90.52
2016-04-12T01:29:50.983Z,90.52
2016-04-12T01:30:00.983Z,90.52
2016-04-12T01:30:10.983Z,90.42
2016-04-12T01:30:20.999Z,90.61
2016-04-12T01:30:30.999Z,90.7
2016-04-12T01:30:41.001Z,90.8
2016-04-12T01:30:51.001Z,90.61
2016-04-12T01:31:01.016Z,90.8
2016-04-12T01:31:11.016Z,90.52
2016-04-12T01:31:21.032Z,90.7
2016-04-12T01:31:31.032Z,90.33
2016-04-12T01:31:41.035Z,90.52
2016-04-12T01:31:51.004Z,90.61
2016-04-12T01:32:01.051Z,90.89
2016-04-12T01:32:11.051Z,90.42
2016-04-12T01:32:21.066Z,90.42
2016-04-12T01:32:31.066Z,90.99
2016-04-12T01:32:41.069Z,90.42
2016-04-12T01:32:51.085Z,90.42
2016-04-12T01:33:01.069Z,90.42
2016-04-12T01:33:11.085Z,90.7
2016-04-12T01:33:21.085Z,90.23
2016-04-12T01:33:31.085Z,90.23
2016-04-12T01:33:41.087Z,90.42
2016-04-12T01:33:51.103Z,90.99
2016-04-12T01:34:01.103Z,90.61
2016-04-12T01:34:11.103Z,90.42
2016-04-12T01:34:21.118Z,90.52
2016-04-12T01:34:31.118Z,90.61
2016-04-12T01:34:41.121Z,90.7
2016-04-12T01:34:51.137Z,90.8
2016-04-12T01:35:01.137Z,90.7
2016-04-12T01:35:11.137Z,90.42
2016-04-12T01:35:21.152Z,90.52
2016-04-12T01:35:31.152Z,91.18
2016-04-12T01:35:41.155Z,91.08
2016-04-12T01:35:51.155Z,90.99
2016-04-12T01:36:01.155Z,91.08
2016-04-12T01:36:11.171Z,90.8
2016-04-12T01:36:21.171Z,90.99
2016-04-12T01:36:31.171Z,90.8
2016-04-12T01:36:41.173Z,90.89
2016-04-12T01:36:51.189Z,90.99
2016-04-12T01:37:01.189Z,90.89
2016-04-12T01:37:11.189Z,90.8
2016-04-12T01:37:21.204Z,90.8
2016-04-12T01:37:31.204Z,90.89
2016-04-12T01:37:41.223Z,90.89
2016-04-12T01:37:51.207Z,91.08
2016-04-12T01:38:01.223Z,91.28
2016-04-12T01:38:11.223Z,91.37
2016-04-12T01:38:21.223Z,91.08
2016-04-12T01:38:31.239Z,91.18
2016-04-12T01:38:41.242Z,91.18
2016-04-12T01:38:51.242Z,91.08
2016-04-12T01:39:01.257Z,90.89
2016-04-12T01:39:11.242Z,90.89
2016-04-12T01:39:21.257Z,91.08
2016-04-12T01:39:31.257Z,90.8
2016-04-12T01:39:41.275Z,91.37
2016-04-12T01:39:51.275Z,91.37
2016-04-12T01:40:01.290Z,91.37
2016-04-12T01:40:11.275Z,91.37
2016-04-12T01:40:21.290Z,91.37
2016-04-12T01:40:31.290Z,91.47
2016-04-12T01:40:41.293Z,91.18
2016-04-12T01:40:51.309Z,91.08
2016-04-12T01:41:01.309Z,91.18
2016-04-12T01:41:11.309Z,91.37
2016-04-12T01:41:21.325Z,91.37
2016-04-12T01:41:31.325Z,91.37
2016-04-12T01:41:41.328Z,91.18
2016-04-12T01:41:51.328Z,91.18
2016-04-12T01:42:01.343Z,91.28
2016-04-12T01:42:11.343Z,91.47
2016-04-12T01:42:21.343Z,91.75
2016-04-12T01:42:31.343Z,91.28
2016-04-12T01:42:41.361Z,91.66
2016-04-12T01:42:51.361Z,91.47
2016-04-12T01:43:01.361Z,91.56
2016-04-12T01:43:11.361Z,91.47
2016-04-12T01:43:21.377Z,91.56
2016-04-12T01:43:31.392Z,91.56
2016-04-12T01:43:41.396Z,91.56
2016-04-12T01:43:51.396Z,91.56
2016-04-12T01:44:01.396Z,91.75
2016-04-12T01:44:11.396Z,91.47
2016-04-12T01:44:21.412Z,91.66
2016-04-12T01:44:31.427Z,91.66
2016-04-12T01:44:41.414Z,91.18
2016-04-12T01:44:51.414Z,91.18
2016-04-12T01:45:01.429Z,91.37
2016-04-12T01:45:11.429Z,91.18
2016-04-12T01:45:21.429Z,91.08
2016-04-12T01:45:31.445Z,91.37
2016-04-12T01:45:41.448Z,91.28
2016-04-12T01:45:51.448Z,91.37
2016-04-12T01:46:01.464Z,91.37
2016-04-12T01:46:11.464Z,91.18
2016-04-12T01:46:21.464Z,91.47
2016-04-12T01:46:31.464Z,91.56
2016-04-12T01:46:41.481Z,91.37
2016-04-12T01:46:51.575Z,91.47
2016-04-12T01:47:01.700Z,91.37
2016-04-12T01:47:11.481Z,91.08
2016-04-12T01:47:21.497Z,91.47
2016-04-12T01:47:31.497Z,91.37
2016-04-12T01:47:41.516Z,90.99
2016-04-12T01:47:51.516Z,91.37
2016-04-12T01:48:01.516Z,90.99
2016-04-12T01:48:11.516Z,90.89
2016-04-12T01:48:21.516Z,90.89
2016-04-12T01:48:31.516Z,91.37
2016-04-12T01:48:41.534Z,91.08
2016-04-12T01:48:51.534Z,91.08
2016-04-12T01:49:01.550Z,91.08
2016-04-12T01:49:11.550Z,91.47
2016-04-12T01:49:21.550Z,91.08
2016-04-12T01:49:31.550Z,90.99
2016-04-12T01:49:41.567Z,91.37
2016-04-12T01:49:51.567Z,91.47
2016-04-12T01:50:01.567Z,91.37
2016-04-12T01:50:11.567Z,91.28
2016-04-12T01:50:21.583Z,91.37
2016-04-12T01:50:31.583Z,91.56
2016-04-12T01:50:41.586Z,91.37
2016-04-12T01:50:51.602Z,91.56
2016-04-12T01:51:01.602Z,91.47
2016-04-12T01:51:11.602Z,91.56
2016-04-12T01:51:21.617Z,91.18
2016-04-12T01:51:31.617Z,91.37
2016-04-12T01:51:41.620Z,91.47
2016-04-12T01:51:51.620Z,91.28
2016-04-12T01:52:01.636Z,91.47
2016-04-12T01:52:11.636Z,91.85
2016-04-12T01:52:21.636Z,91.18
2016-04-12T01:52:31.636Z,91.18
2016-04-12T01:52:41.654Z,91.85
2016-04-12T01:52:51.654Z,91.85
2016-04-12T01:53:01.669Z,91.85
2016-04-12T01:53:11.669Z,91.28
2016-04-12T01:53:21.669Z,91.66
2016-04-12T01:53:31.669Z,91.56
2016-04-12T01:53:41.672Z,91.56
2016-04-12T01:53:51.688Z,91.66
2016-04-12T01:54:01.688Z,91.56
2016-04-12T01:54:11.688Z,91.66
2016-04-12T01:54:21.703Z,91.75
2016-04-12T01:54:31.703Z,91.56
2016-04-12T01:54:41.706Z,91.66
2016-04-12T01:54:51.706Z,91.75
2016-04-12T01:55:01.722Z,91.56
2016-04-12T01:55:11.722Z,91.75
2016-04-12T01:55:21.722Z,91.66
2016-04-12T01:55:31.738Z,91.56
2016-04-12T01:55:41.741Z,91.75
2016-04-12T01:55:51.741Z,91.75
2016-04-12T01:56:01.741Z,91.37
2016-04-12T01:56:11.756Z,91.56
2016-04-12T01:56:21.756Z,91.56
2016-04-12T01:56:31.756Z,91.47
2016-04-12T01:56:41.775Z,91.56
2016-04-12T01:56:51.775Z,91.56
2016-04-12T01:57:01.775Z,91.56
2016-04-12T01:57:11.791Z,91.47
2016-04-12T01:57:21.791Z,91.56
2016-04-12T01:57:31.806Z,91.56
2016-04-12T01:57:41.808Z,91.37
2016-04-12T01:57:51.808Z,91.28
2016-04-12T01:58:01.808Z,91.66
2016-04-12T01:58:11.808Z,91.28
2016-04-12T01:58:21.808Z,91.66
2016-04-12T01:58:31.824Z,91.66
2016-04-12T01:58:41.826Z,91.66
2016-04-12T01:58:51.826Z,91.66
2016-04-12T01:59:01.841Z,91.56
2016-04-12T01:59:11.841Z,91.37
2016-04-12T01:59:21.841Z,91.47
2016-04-12T01:59:31.841Z,91.37
2016-04-12T01:59:41.861Z,91.66
2016-04-12T01:59:51.861Z,91.66
2016-04-12T02:00:01.861Z,91.66
2016-04-12T02:00:11.877Z,91.66
2016-04-12T02:00:21.877Z,91.75
2016-04-12T02:00:31.892Z,91.85
2016-04-12T02:00:41.879Z,91.75
2016-04-12T02:00:51.894Z,91.66
2016-04-12T02:01:01.894Z,91.37
2016-04-12T02:01:11.894Z,91.37
2016-04-12T02:01:21.910Z,91.37
2016-04-12T02:01:31.910Z,91.37
2016-04-12T02:01:41.913Z,91.75
2016-04-12T02:01:51.929Z,91.66
2016-04-12T02:02:01.929Z,91.37
2016-04-12T02:02:11.929Z,91.37
2016-04-12T02:02:21.929Z,91.47
2016-04-12T02:02:31.929Z,91.56
2016-04-12T02:02:41.947Z,91.37
2016-04-12T02:02:51.947Z,91.37
2016-04-12T02:03:01.963Z,91.37
2016-04-12T02:03:11.963Z,91.85
2016-04-12T02:03:21.963Z,91.85
2016-04-12T02:03:31.978Z,91.37
2016-04-12T02:03:41.965Z,91.66
2016-04-12T02:03:51.980Z,91.85
2016-04-12T02:04:01.980Z,91.47
2016-04-12T02:04:11.996Z,91.66
2016-04-12T02:04:21.996Z,91.56
2016-04-12T02:04:31.996Z,91.75
2016-04-12T02:04:42.015Z,91.37
2016-04-12T02:04:51.999Z,91.66
2016-04-12T02:05:02.015Z,91.47
2016-04-12T02:05:12.015Z,91.37
2016-04-12T02:05:22.015Z,91.28
2016-04-12T02:05:32.030Z,91.66
2016-04-12T02:05:42.032Z,91.47
2016-04-12T02:05:52.032Z,91.66
2016-04-12T02:06:02.032Z,91.66
2016-04-12T02:06:12.048Z,91.66
2016-04-12T02:06:22.048Z,91.37
2016-04-12T02:06:32.048Z,91.66
2016-04-12T02:06:42.067Z,91.37
2016-04-12T02:06:52.067Z,91.37
2016-04-12T02:07:02.067Z,91.85
2016-04-12T02:07:12.067Z,91.37
2016-04-12T02:07:22.082Z,91.37
2016-04-12T02:07:32.082Z,91.37
2016-04-12T02:07:42.085Z,91.75
2016-04-12T02:07:52.101Z,91.75
2016-04-12T02:08:02.101Z,91.66
2016-04-12T02:08:12.101Z,91.75
2016-04-12T02:08:22.116Z,91.56
2016-04-12T02:08:32.116Z,91.56
2016-04-12T02:08:42.118Z,91.94
2016-04-12T02:08:52.118Z,91.85
2016-04-12T02:09:02.134Z,91.94
2016-04-12T02:09:12.134Z,91.56
2016-04-12T02:09:22.134Z,91.66
2016-04-12T02:09:32.134Z,91.75